sensor_id;sensor_type;location;lat;lon;timestamp;P1;P2;P0
68341;PMS7003;55668;52.310;21.066;2022-07-23T00:28:03;12;12;
68341;PMS7003;55668;52.310;21.066;2022-07-23T00:44:50;16;16;
68341;PMS7003;55668;52.310;21.066;2022-07-23T00:57:14;16;16;
68341;PMS7003;55668;52.310;21.066;2022-07-23T01:12:32;15;15;
68341;PMS7003;55668;52.310;21.066;2022-07-23T01:30:01;16;16;
68341;PMS7003;55668;52.310;21.066;2022-07-23T01:42:28;15;15;
68341;PMS7003;55668;52.310;21.066;2022-07-23T01:58:30;15;15;
68341;PMS7003;55668;52.310;21.066;2022-07-23T02:14:28;16;16;
68341;PMS7003;55668;52.310;21.066;2022-07-23T03:30:19;15;15;
68341;PMS7003;55668;52.310;21.066;2022-07-23T03:46:17;18;17;
68341;PMS7003;55668;52.310;21.066;2022-07-23T04:01:43;16;16;
68341;PMS7003;55668;52.310;21.066;2022-07-23T04:18:24;16;16;
68341;PMS7003;55668;52.310;21.066;2022-07-23T04:31:42;18;18;
68341;PMS7003;55668;52.310;21.066;2022-07-23T04:47:43;17;17;
68341;PMS7003;55668;52.310;21.066;2022-07-23T05:02:18;18;18;
68341;PMS7003;55668;52.310;21.066;2022-07-23T05:17:59;17;17;
68341;PMS7003;55668;52.310;21.066;2022-07-23T05:26:46;16;16;
68341;PMS7003;55668;52.310;21.066;2022-07-23T05:33:25;16;16;
68341;PMS7003;55668;52.310;21.066;2022-07-23T05:48:32;16;16;
68341;PMS7003;55668;52.310;21.066;2022-07-23T06:04:05;18;18;
68341;PMS7003;55668;52.310;21.066;2022-07-23T06:19:01;15;15;
68341;PMS7003;55668;52.310;21.066;2022-07-23T06:35:21;16;16;
68341;PMS7003;55668;52.310;21.066;2022-07-23T06:50:36;13;13;
68341;PMS7003;55668;52.310;21.066;2022-07-23T07:05:18;16;16;
68341;PMS7003;55668;52.310;21.066;2022-07-23T07:15:47;16;16;
68341;PMS7003;55668;52.310;21.066;2022-07-23T07:28:24;14;13;
68341;PMS7003;55668;52.310;21.066;2022-07-23T07:46:53;12;12;
68341;PMS7003;55668;52.310;21.066;2022-07-23T08:15:25;12;12;
68341;PMS7003;55668;52.310;21.066;2022-07-23T08:26:07;13;13;
68341;PMS7003;55668;52.310;21.066;2022-07-23T08:36:15;10;10;
68341;PMS7003;55668;52.310;21.066;2022-07-23T08:37:33;10;10;
68341;PMS7003;55668;52.310;21.066;2022-07-23T08:42:37;10;10;
68341;PMS7003;55668;52.310;21.066;2022-07-23T08:45:28;10;10;
68341;PMS7003;55668;52.310;21.066;2022-07-23T09:01:00;10;10;
68341;PMS7003;55668;52.310;21.066;2022-07-23T09:18:55;12;12;
68341;PMS7003;55668;52.310;21.066;2022-07-23T09:34:14;10;10;
68341;PMS7003;55668;52.310;21.066;2022-07-23T10:04:56;10;10;
68341;PMS7003;55668;52.310;21.066;2022-07-23T10:20:14;7;7;
68341;PMS7003;55668;52.310;21.066;2022-07-23T10:32:58;10;10;
68341;PMS7003;55668;52.310;21.066;2022-07-23T11:03:27;9;9;
68341;PMS7003;55668;52.310;21.066;2022-07-23T11:22:58;9;9;
68341;PMS7003;55668;52.310;21.066;2022-07-23T11:35:19;8;8;
68341;PMS7003;55668;52.310;21.066;2022-07-23T11:51:43;8;8;
68341;PMS7003;55668;52.310;21.066;2022-07-23T12:06:12;7;7;
68341;PMS7003;55668;52.310;21.066;2022-07-23T12:20:35;8;8;
68341;PMS7003;55668;52.310;21.066;2022-07-23T12:38:50;7;7;
68341;PMS7003;55668;52.310;21.066;2022-07-23T12:52:15;8;8;
68341;PMS7003;55668;52.310;21.066;2022-07-23T13:06:41;8;8;
68341;PMS7003;55668;52.310;21.066;2022-07-23T13:21:25;6;6;
68341;PMS7003;55668;52.310;21.066;2022-07-23T14:08:16;7;7;
68341;PMS7003;55668;52.310;21.066;2022-07-23T14:24:12;7;7;
68341;PMS7003;55668;52.310;21.066;2022-07-23T14:39:51;8;8;
68341;PMS7003;55668;52.310;21.066;2022-07-23T14:55:09;6;6;
68341;PMS7003;55668;52.310;21.066;2022-07-23T15:09:45;7;7;
68341;PMS7003;55668;52.310;21.066;2022-07-23T15:17:27;8;8;
68341;PMS7003;55668;52.310;21.066;2022-07-23T15:31:59;7;7;
68341;PMS7003;55668;52.310;21.066;2022-07-23T15:49:28;10;10;
68341;PMS7003;55668;52.310;21.066;2022-07-23T16:08:08;10;10;
68341;PMS7003;55668;52.310;21.066;2022-07-23T16:18:35;9;9;
68341;PMS7003;55668;52.310;21.066;2022-07-23T16:34:32;8;8;
68341;PMS7003;55668;52.310;21.066;2022-07-23T17:04:54;9;8;
68341;PMS7003;55668;52.310;21.066;2022-07-23T17:19:57;9;9;
68341;PMS7003;55668;52.310;21.066;2022-07-23T17:36:14;6;6;
68341;PMS7003;55668;52.310;21.066;2022-07-23T18:23:46;6;6;
68341;PMS7003;55668;52.310;21.066;2022-07-23T18:39:13;7;6;
68341;PMS7003;55668;52.310;21.066;2022-07-23T19:08:52;7;7;
68341;PMS7003;55668;52.310;21.066;2022-07-23T19:24:05;7;7;
68341;PMS7003;55668;52.310;21.066;2022-07-23T19:43:01;6;6;
68341;PMS7003;55668;52.310;21.066;2022-07-23T19:57:47;6;6;
68341;PMS7003;55668;52.310;21.066;2022-07-23T20:24:45;8;8;
68341;PMS7003;55668;52.310;21.066;2022-07-23T20:43:26;7;7;
68341;PMS7003;55668;52.310;21.066;2022-07-23T20:55:39;6;6;
68341;PMS7003;55668;52.310;21.066;2022-07-23T21:14:17;9;9;
68341;PMS7003;55668;52.310;21.066;2022-07-23T21:44:57;7;7;
68341;PMS7003;55668;52.310;21.066;2022-07-23T21:57:57;11;11;
68341;PMS7003;55668;52.310;21.066;2022-07-23T22:17:04;9;9;
68341;PMS7003;55668;52.310;21.066;2022-07-23T22:31:09;10;10;
68341;PMS7003;55668;52.310;21.066;2022-07-23T22:45:16;10;10;
68341;PMS7003;55668;52.310;21.066;2022-07-23T23:17:45;11;11;
